createdAt,value
2023-04-12T00:00:11.727Z,14.99
2023-04-12T00:02:39.729Z,14.07
2023-04-12T00:05:09.405Z,14.67
2023-04-12T00:07:35.984Z,14.32
2023-04-12T00:10:03.137Z,14.49
2023-04-12T00:12:29.504Z,14.73
2023-04-12T00:14:56.050Z,14.49
2023-04-12T00:17:22.439Z,14.32
2023-04-12T00:19:49.962Z,14.45
2023-04-12T00:22:16.781Z,14.60
2023-04-12T00:24:43.568Z,14.32
2023-04-12T00:27:09.997Z,14.45
2023-04-12T00:29:36.387Z,13.44
2023-04-12T00:32:03.834Z,13.50
2023-04-12T00:34:30.416Z,13.80
2023-04-12T00:36:56.756Z,13.14
2023-04-12T00:39:23.322Z,13.09
2023-04-12T00:41:49.657Z,13.98
2023-04-12T00:44:17.976Z,13.91
2023-04-12T00:46:46.363Z,13.45
2023-04-12T00:49:13.255Z,13.80
2023-04-12T00:51:39.729Z,13.85
2023-04-12T00:54:06.892Z,13.26
2023-04-12T00:56:34.397Z,13.99
2023-04-12T00:59:02.002Z,13.65
2023-04-12T01:01:28.484Z,13.78
2023-04-12T01:04:00.920Z,13.84
2023-04-12T01:06:46.551Z,13.92
2023-04-12T01:09:40.453Z,13.21
2023-04-12T01:12:48.650Z,13.76
2023-04-12T01:15:16.476Z,14.00
2023-04-12T01:18:08.117Z,14.10
2023-04-12T01:20:48.274Z,13.81
2023-04-12T01:23:28.779Z,13.43
2023-04-12T01:26:02.753Z,14.20
2023-04-12T01:28:33.945Z,14.22
2023-04-12T01:31:04.179Z,13.51
2023-04-12T01:33:31.771Z,14.15
2023-04-12T01:36:00.818Z,14.16
2023-04-12T01:38:27.709Z,14.15
2023-04-12T01:40:54.878Z,13.98
2023-04-12T01:43:21.313Z,13.30
2023-04-12T01:45:47.814Z,14.09
2023-04-12T01:48:14.328Z,14.24
2023-04-12T01:51:04.442Z,14.14
2023-04-12T01:53:54.546Z,14.07
2023-04-12T01:56:22.762Z,14.26
2023-04-12T01:58:53.406Z,13.66
2023-04-12T02:01:19.986Z,14.00
2023-04-12T02:03:49.955Z,13.34
2023-04-12T02:06:20.751Z,13.88
2023-04-12T02:08:47.925Z,13.77
2023-04-12T02:11:14.765Z,13.82
2023-04-12T02:13:41.266Z,13.18
2023-04-12T02:16:10.563Z,13.59
2023-04-12T02:18:37.002Z,13.68
2023-04-12T02:21:03.344Z,13.76
2023-04-12T02:23:29.734Z,13.80
2023-04-12T02:25:56.363Z,13.80
2023-04-12T02:28:23.188Z,13.51
2023-04-12T02:30:53.339Z,13.78
2023-04-12T02:33:25.337Z,13.54
2023-04-12T02:35:52.337Z,13.66
2023-04-12T02:38:18.740Z,13.43
2023-04-12T02:40:45.114Z,13.49
2023-04-12T02:43:11.502Z,13.27
2023-04-12T02:45:38.027Z,12.65
2023-04-12T02:48:05.262Z,12.63
2023-04-12T02:50:31.751Z,12.60
2023-04-12T02:52:58.095Z,13.12
2023-04-12T02:55:25.647Z,13.48
2023-04-12T02:57:52.069Z,13.18
2023-04-12T03:00:18.619Z,13.31
2023-04-12T03:02:45.232Z,12.91
2023-04-12T03:05:12.333Z,13.59
2023-04-12T03:07:38.733Z,13.69
2023-04-12T03:10:07.343Z,13.18
2023-04-12T03:12:33.734Z,13.25
2023-04-12T03:15:00.083Z,13.23
2023-04-12T03:17:26.567Z,13.42
2023-04-12T03:19:52.966Z,13.52
2023-04-12T03:22:19.324Z,13.65
2023-04-12T03:24:46.514Z,13.69
2023-04-12T03:27:12.963Z,13.20
2023-04-12T03:29:39.396Z,13.56
2023-04-12T03:32:05.952Z,13.17
2023-04-12T03:34:32.509Z,13.69
2023-04-12T03:37:00.883Z,13.19
2023-04-12T03:39:27.644Z,13.56
2023-04-12T03:41:54.304Z,13.76
2023-04-12T03:44:21.288Z,12.99
2023-04-12T03:46:48.672Z,13.75
2023-04-12T03:49:16.464Z,13.30
2023-04-12T03:51:43.473Z,12.85
2023-04-12T03:54:11.288Z,13.05
2023-04-12T03:56:38.457Z,13.53
2023-04-12T03:59:07.682Z,13.23
2023-04-12T04:01:34.888Z,12.77
2023-04-12T04:04:02.159Z,13.25
2023-04-12T04:06:29.773Z,13.23
2023-04-12T04:08:57.243Z,12.79
2023-04-12T04:11:24.872Z,13.16
2023-04-12T04:13:51.796Z,12.09
2023-04-12T04:16:18.268Z,12.43
2023-04-12T04:18:44.778Z,12.01
2023-04-12T04:21:11.138Z,11.76
2023-04-12T04:23:40.627Z,11.75
2023-04-12T04:26:10.537Z,11.79
2023-04-12T04:28:44.926Z,12.47
2023-04-12T04:31:12.962Z,11.61
2023-04-12T04:33:40.151Z,11.42
2023-04-12T04:36:09.893Z,12.13
2023-04-12T04:38:36.315Z,12.13
2023-04-12T04:41:03.322Z,11.51
2023-04-12T04:43:30.745Z,12.25
2023-04-12T04:45:58.194Z,11.67
2023-04-12T04:48:24.881Z,11.96
2023-04-12T04:50:54.258Z,11.94
2023-04-12T04:53:22.323Z,12.19
2023-04-12T04:55:48.981Z,12.17
2023-04-12T04:58:16.495Z,12.16
2023-04-12T05:00:44.842Z,11.63
2023-04-12T05:03:11.874Z,11.99
2023-04-12T05:05:38.469Z,11.56
2023-04-12T05:08:05.523Z,11.52
2023-04-12T05:10:31.922Z,11.13
2023-04-12T05:12:58.245Z,11.94
2023-04-12T05:15:24.568Z,11.51
2023-04-12T05:17:51.139Z,11.77
2023-04-12T05:20:18.358Z,12.03
2023-04-12T05:22:44.833Z,11.44
2023-04-12T05:25:13.816Z,10.96
2023-04-12T05:27:40.231Z,11.79
2023-04-12T05:30:07.961Z,12.11
2023-04-12T05:32:36.736Z,11.67
2023-04-12T05:35:03.411Z,11.21
2023-04-12T05:37:32.049Z,11.65
2023-04-12T05:40:01.157Z,10.82
2023-04-12T05:42:28.537Z,11.32
2023-04-12T05:44:56.380Z,11.36
2023-04-12T05:47:22.831Z,11.96
2023-04-12T05:49:49.535Z,11.63
2023-04-12T05:52:18.729Z,11.63
2023-04-12T05:54:45.178Z,11.34
2023-04-12T05:57:12.394Z,11.26
2023-04-12T05:59:41.022Z,11.32
2023-04-12T06:02:08.668Z,12.12
2023-04-12T06:04:49.249Z,11.22
2023-04-12T06:07:18.951Z,11.01
2023-04-12T06:09:45.484Z,11.00
2023-04-12T06:12:11.942Z,12.09
2023-04-12T06:14:38.355Z,11.31
2023-04-12T06:17:04.811Z,11.80
2023-04-12T06:19:31.347Z,12.16
2023-04-12T06:21:57.730Z,12.18
2023-04-12T06:24:24.103Z,12.27
2023-04-12T06:26:50.607Z,12.39
2023-04-12T06:29:21.505Z,11.85
2023-04-12T06:31:48.392Z,12.05
2023-04-12T06:34:15.877Z,11.52
2023-04-12T06:36:43.454Z,12.01
2023-04-12T06:39:11.949Z,11.97
2023-04-12T06:41:38.352Z,11.63
2023-04-12T06:44:06.227Z,12.09
2023-04-12T06:46:32.677Z,12.29
2023-04-12T06:48:59.337Z,12.18
2023-04-12T06:51:26.009Z,12.23
2023-04-12T06:53:56.121Z,12.18
2023-04-12T06:56:22.502Z,12.28
2023-04-12T06:58:48.974Z,12.37
2023-04-12T07:01:17.762Z,11.64
2023-04-12T07:03:44.456Z,12.47
2023-04-12T07:06:23.724Z,12.44
2023-04-12T07:08:51.219Z,12.04
2023-04-12T07:11:21.547Z,12.21
2023-04-12T07:13:51.358Z,12.48
2023-04-12T07:16:18.461Z,12.11
2023-04-12T07:18:48.342Z,11.74
2023-04-12T07:21:17.243Z,12.27
2023-04-12T07:23:46.815Z,12.48
2023-04-12T07:26:13.247Z,12.52
2023-04-12T07:29:13.279Z,11.39
2023-04-12T07:31:39.792Z,11.97
2023-04-12T07:37:17.920Z,12.32
2023-04-12T07:43:31.294Z,12.15
2023-04-12T07:47:01.283Z,12.19
2023-04-12T07:53:52.520Z,12.35
2023-04-12T08:15:33.982Z,12.51
2023-04-12T08:18:01.315Z,12.10
2023-04-12T08:20:27.848Z,12.73
2023-04-12T08:22:54.864Z,12.59
2023-04-12T08:25:22.070Z,12.05
2023-04-12T08:27:49.802Z,12.18
2023-04-12T08:30:19.480Z,11.67
2023-04-12T08:36:52.894Z,12.25
2023-04-12T08:39:24.253Z,12.16
2023-04-12T08:45:38.175Z,12.46
2023-04-12T08:48:05.825Z,12.14
2023-04-12T08:50:32.538Z,12.03
2023-04-12T08:52:59.593Z,11.53
2023-04-12T08:55:26.248Z,12.19
2023-04-12T08:57:59.831Z,12.92
2023-04-12T09:00:32.269Z,12.52
2023-04-12T09:02:58.964Z,12.39
2023-04-12T09:05:50.231Z,12.31
2023-04-12T09:08:17.546Z,12.71
2023-04-12T09:10:44.104Z,12.72
2023-04-12T09:13:10.638Z,12.62
2023-04-12T09:15:47.650Z,12.34
2023-04-12T09:18:17.141Z,13.37
2023-04-12T09:20:43.820Z,12.80
2023-04-12T09:23:21.448Z,13.43
2023-04-12T09:25:50.181Z,13.61
2023-04-12T09:28:27.940Z,13.45
2023-04-12T09:30:56.229Z,14.27
2023-04-12T09:33:38.145Z,13.41
2023-04-12T09:36:14.222Z,12.76
2023-04-12T09:38:43.012Z,13.76
2023-04-12T09:41:21.517Z,13.27
2023-04-12T09:43:50.311Z,13.66
2023-04-12T09:46:16.961Z,14.25
2023-04-12T09:48:51.700Z,13.82
2023-04-12T09:51:51.472Z,13.62
2023-04-12T09:54:18.440Z,13.65
2023-04-12T09:56:45.696Z,13.99
2023-04-12T09:59:14.146Z,13.70
2023-04-12T10:01:41.756Z,14.24
2023-04-12T10:04:10.179Z,13.09
2023-04-12T10:06:41.264Z,12.85
2023-04-12T10:09:08.906Z,13.52
2023-04-12T10:11:35.777Z,13.53
2023-04-12T10:14:03.205Z,14.06
2023-04-12T10:16:30.804Z,13.96
2023-04-12T10:19:02.188Z,13.74
2023-04-12T10:21:28.907Z,14.00
2023-04-12T10:23:55.631Z,14.25
2023-04-12T10:26:22.083Z,13.41
2023-04-12T10:29:25.330Z,14.32
2023-04-12T10:31:53.059Z,14.30
2023-04-12T10:34:24.791Z,13.88
2023-04-12T10:36:53.526Z,14.26
2023-04-12T10:39:45.118Z,15.03
2023-04-12T10:42:29.209Z,14.24
2023-04-12T10:45:51.738Z,15.78
2023-04-12T10:48:34.861Z,16.31
2023-04-12T10:51:28.644Z,16.32
2023-04-12T10:54:07.390Z,16.45
2023-04-12T10:56:41.342Z,16.04
2023-04-12T10:59:12.239Z,15.99
2023-04-12T11:01:40.469Z,16.03
2023-04-12T11:04:08.203Z,15.99
2023-04-12T11:06:53.504Z,16.08
2023-04-12T11:09:30.060Z,15.87
2023-04-12T11:12:06.497Z,16.05
2023-04-12T11:14:35.066Z,15.94
2023-04-12T11:17:14.533Z,15.50
2023-04-12T11:19:45.185Z,15.74
2023-04-12T11:22:13.956Z,14.52
2023-04-12T11:24:41.229Z,14.82
2023-04-12T11:27:10.421Z,13.36
2023-04-12T11:29:36.925Z,14.71
2023-04-12T11:32:04.724Z,13.99
2023-04-12T11:34:35.431Z,15.10
2023-04-12T11:37:07.946Z,15.41
2023-04-12T11:39:39.528Z,14.59
2023-04-12T11:42:08.646Z,15.02
2023-04-12T11:44:55.127Z,14.67
2023-04-12T11:47:24.238Z,14.71
2023-04-12T11:49:55.617Z,16.25
2023-04-12T11:52:31.258Z,16.80
2023-04-12T11:55:01.403Z,17.25
2023-04-12T11:57:28.992Z,16.70
2023-04-12T11:59:57.492Z,16.12
2023-04-12T12:02:27.661Z,16.10
2023-04-12T12:04:57.194Z,15.77
2023-04-12T12:07:26.766Z,14.77
2023-04-12T12:09:53.978Z,15.94
2023-04-12T12:12:23.994Z,15.82
2023-04-12T12:14:50.582Z,15.20
2023-04-12T12:17:17.420Z,14.33
2023-04-12T12:19:46.246Z,16.01
2023-04-12T12:22:20.305Z,15.25
2023-04-12T12:24:55.748Z,15.86
2023-04-12T12:27:24.108Z,15.77
2023-04-12T12:30:01.124Z,16.35
2023-04-12T12:32:37.903Z,16.88
2023-04-12T12:38:39.285Z,16.52
2023-04-12T12:41:14.639Z,16.25
2023-04-12T12:43:47.728Z,16.19
2023-04-12T12:46:14.967Z,15.78
2023-04-12T12:48:42.027Z,14.58
2023-04-12T12:51:09.841Z,16.12
2023-04-12T12:53:36.882Z,14.58
2023-04-12T12:56:03.334Z,14.76
2023-04-12T12:58:30.291Z,16.26
2023-04-12T13:00:56.702Z,15.25
2023-04-12T13:03:23.489Z,15.97
2023-04-12T13:05:50.740Z,16.68
2023-04-12T13:08:19.381Z,16.61
2023-04-12T13:10:45.848Z,17.99
2023-04-12T13:13:12.242Z,16.88
2023-04-12T13:15:38.869Z,16.99
2023-04-12T13:18:05.591Z,16.51
2023-04-12T13:20:31.973Z,15.41
2023-04-12T13:22:59.007Z,12.84
2023-04-12T13:25:26.622Z,11.49
2023-04-12T13:27:53.135Z,12.60
2023-04-12T13:30:20.115Z,12.14
2023-04-12T13:32:46.820Z,11.74
2023-04-12T13:35:13.708Z,13.11
2023-04-12T13:37:40.382Z,13.04
2023-04-12T13:40:09.109Z,13.67
2023-04-12T13:42:35.642Z,12.96
2023-04-12T13:45:03.795Z,13.44
2023-04-12T13:47:31.431Z,13.51
2023-04-12T13:49:58.084Z,13.33
2023-04-12T13:52:24.552Z,13.82
2023-04-12T13:54:51.535Z,14.05
2023-04-12T13:57:18.180Z,14.03
2023-04-12T13:59:47.205Z,14.43
2023-04-12T14:02:17.360Z,15.22
2023-04-12T14:04:55.139Z,15.92
2023-04-12T14:07:21.820Z,15.96
2023-04-12T14:09:48.860Z,15.46
2023-04-12T14:12:15.683Z,15.82
2023-04-12T14:14:42.397Z,15.62
2023-04-12T14:17:08.922Z,16.19
2023-04-12T14:19:36.063Z,16.05
2023-04-12T14:22:02.660Z,15.65
2023-04-12T14:24:29.183Z,14.66
2023-04-12T14:26:57.090Z,14.21
2023-04-12T14:29:23.577Z,13.74
2023-04-12T14:31:50.243Z,13.85
2023-04-12T14:34:16.702Z,14.05
2023-04-12T14:36:47.364Z,14.33
2023-04-12T14:39:14.926Z,15.01
2023-04-12T14:41:50.706Z,14.46
2023-04-12T14:44:19.614Z,12.27
2023-04-12T14:46:47.003Z,12.57
2023-04-12T14:49:14.259Z,12.57
2023-04-12T14:51:41.134Z,12.69
2023-04-12T14:54:07.744Z,13.74
2023-04-12T14:56:40.987Z,14.99
2023-04-12T14:59:11.619Z,15.48
2023-04-12T15:01:44.434Z,15.95
2023-04-12T15:04:11.305Z,16.09
2023-04-12T15:06:44.647Z,15.64
2023-04-12T15:09:11.474Z,15.73
2023-04-12T15:11:39.927Z,15.91
2023-04-12T15:14:09.949Z,14.43
2023-04-12T15:16:36.602Z,14.85
2023-04-12T15:19:10.751Z,15.10
2023-04-12T15:21:43.533Z,14.02
2023-04-12T15:24:09.994Z,15.38
2023-04-12T15:26:39.243Z,14.97
2023-04-12T15:29:06.931Z,14.49
2023-04-12T15:31:33.410Z,12.97
2023-04-12T15:34:02.649Z,13.01
2023-04-12T15:36:34.173Z,12.69
2023-04-12T15:39:01.715Z,12.50
2023-04-12T15:41:33.984Z,12.41
2023-04-12T15:44:00.648Z,12.91
2023-04-12T15:46:27.253Z,13.62
2023-04-12T15:48:53.746Z,13.27
2023-04-12T15:51:20.200Z,13.51
2023-04-12T15:53:46.674Z,13.75
2023-04-12T15:56:15.346Z,13.83
2023-04-12T15:58:43.100Z,13.93
2023-04-12T16:01:10.290Z,15.54
2023-04-12T16:03:37.324Z,15.07
2023-04-12T16:06:05.334Z,14.84
2023-04-12T16:08:31.876Z,15.44
2023-04-12T16:10:58.744Z,15.20
2023-04-12T16:13:25.317Z,14.94
2023-04-12T16:15:52.363Z,15.33
2023-04-12T16:18:18.933Z,15.08
2023-04-12T16:20:45.393Z,14.37
2023-04-12T16:23:11.908Z,15.14
2023-04-12T16:25:48.666Z,16.44
2023-04-12T16:28:17.948Z,15.83
2023-04-12T16:30:44.468Z,16.12
2023-04-12T16:33:11.226Z,15.15
2023-04-12T16:35:38.421Z,13.94
2023-04-12T16:38:05.108Z,14.80
2023-04-12T16:40:31.731Z,13.82
2023-04-12T16:42:58.152Z,14.04
2023-04-12T16:45:25.002Z,14.49
2023-04-12T16:47:51.515Z,14.77
2023-04-12T16:50:18.058Z,13.93
2023-04-12T16:52:44.534Z,13.70
2023-04-12T16:55:12.466Z,13.77
2023-04-12T16:57:40.935Z,13.65
2023-04-12T17:00:22.163Z,14.19
2023-04-12T17:02:50.460Z,14.73
2023-04-12T17:05:17.927Z,14.60
2023-04-12T17:07:50.562Z,13.90
2023-04-12T17:10:18.421Z,13.47
2023-04-12T17:12:50.298Z,14.26
2023-04-12T17:15:18.163Z,14.25
2023-04-12T17:17:52.556Z,14.42
2023-04-12T17:20:22.067Z,14.05
2023-04-12T17:22:49.770Z,14.64
2023-04-12T17:25:18.217Z,14.43
2023-04-12T17:27:47.909Z,14.08
2023-04-12T17:30:16.567Z,14.61
2023-04-12T17:32:45.285Z,13.95
2023-04-12T17:35:13.049Z,13.65
2023-04-12T17:37:39.684Z,14.80
2023-04-12T17:40:07.919Z,14.55
2023-04-12T17:42:34.382Z,14.78
2023-04-12T17:45:01.081Z,13.99
2023-04-12T17:47:27.563Z,14.58
2023-04-12T17:49:54.101Z,14.77
2023-04-12T17:52:20.748Z,14.83
2023-04-12T17:54:47.222Z,14.87
2023-04-12T17:57:13.648Z,14.93
2023-04-12T17:59:40.076Z,14.42
2023-04-12T18:02:06.852Z,14.96
2023-04-12T18:04:33.829Z,14.96
2023-04-12T18:07:01.245Z,14.91
2023-04-12T18:09:28.446Z,14.50
2023-04-12T18:11:54.865Z,14.77
2023-04-12T18:14:21.302Z,14.77
2023-04-12T18:16:48.092Z,14.39
2023-04-12T18:19:16.464Z,15.05
2023-04-12T18:21:46.945Z,14.70
2023-04-12T18:24:13.387Z,14.57
2023-04-12T18:26:39.860Z,14.52
2023-04-12T18:29:06.443Z,14.53
2023-04-12T18:31:32.966Z,14.29
2023-04-12T18:33:59.479Z,14.39
2023-04-12T18:36:27.132Z,14.42
2023-04-12T18:38:53.497Z,14.28
2023-04-12T18:41:19.900Z,14.30
2023-04-12T18:43:46.508Z,14.42
2023-04-12T18:46:17.636Z,14.56
2023-04-12T18:48:45.700Z,14.31
2023-04-12T18:51:12.979Z,13.68
2023-04-12T18:53:39.342Z,13.94
2023-04-12T18:56:13.656Z,14.56
2023-04-12T18:58:51.100Z,14.41
2023-04-12T19:01:22.038Z,13.90
2023-04-12T19:03:48.722Z,13.84
2023-04-12T19:06:15.347Z,13.99
2023-04-12T19:08:43.064Z,13.32
2023-04-12T19:11:09.712Z,14.11
2023-04-12T19:13:37.065Z,13.82
2023-04-12T19:16:07.315Z,13.56
2023-04-12T19:18:34.325Z,13.91
2023-04-12T19:21:01.898Z,13.91
2023-04-12T19:23:29.066Z,13.72
2023-04-12T19:25:57.457Z,13.47
2023-04-12T19:28:24.447Z,13.75
2023-04-12T19:30:51.036Z,13.31
2023-04-12T19:33:18.173Z,12.99
2023-04-12T19:35:44.569Z,11.17
2023-04-12T19:38:10.934Z,10.01
2023-04-12T19:40:37.555Z,10.04
2023-04-12T19:43:04.508Z,9.98
2023-04-12T19:45:31.218Z,9.19
2023-04-12T19:47:57.830Z,10.63
2023-04-12T19:50:25.914Z,10.26
2023-04-12T19:52:52.645Z,11.24
2023-04-12T19:55:21.289Z,11.31
2023-04-12T19:57:47.838Z,11.21
2023-04-12T20:00:22.570Z,10.83
2023-04-12T20:02:51.148Z,11.17
2023-04-12T20:05:17.859Z,11.18
2023-04-12T20:07:44.421Z,11.99
2023-04-12T20:10:11.856Z,11.57
2023-04-12T20:12:38.513Z,11.25
2023-04-12T20:15:08.196Z,12.17
2023-04-12T20:17:47.949Z,11.28
2023-04-12T20:20:15.440Z,12.03
2023-04-12T20:22:43.534Z,12.15
2023-04-12T20:25:14.498Z,12.43
2023-04-12T20:27:41.105Z,12.11
2023-04-12T20:30:08.937Z,12.16
2023-04-12T20:32:36.030Z,11.60
2023-04-12T20:35:06.452Z,11.25
2023-04-12T20:37:33.686Z,11.93
2023-04-12T20:40:00.746Z,11.36
2023-04-12T20:42:30.854Z,11.13
2023-04-12T20:44:57.431Z,11.50
2023-04-12T20:47:23.932Z,11.14
2023-04-12T20:49:50.686Z,11.30
2023-04-12T20:52:20.428Z,11.95
2023-04-12T20:54:48.276Z,11.85
2023-04-12T20:57:19.597Z,11.27
2023-04-12T20:59:46.679Z,11.05
2023-04-12T21:02:15.325Z,11.69
2023-04-12T21:04:42.006Z,11.50
2023-04-12T21:07:11.608Z,11.47
2023-04-12T21:09:38.660Z,11.60
2023-04-12T21:12:08.264Z,11.52
2023-04-12T21:14:36.097Z,11.72
2023-04-12T21:17:06.630Z,11.24
2023-04-12T21:19:41.670Z,11.58
2023-04-12T21:22:10.427Z,10.97
2023-04-12T21:24:38.607Z,10.61
2023-04-12T21:27:09.564Z,11.29
2023-04-12T21:29:41.336Z,11.45
2023-04-12T21:32:08.854Z,10.90
2023-04-12T21:34:36.995Z,11.44
2023-04-12T21:37:04.166Z,11.37
2023-04-12T21:39:30.983Z,11.39
2023-04-12T21:41:58.119Z,11.07
2023-04-12T21:44:25.354Z,10.76
2023-04-12T21:46:51.874Z,10.91
2023-04-12T21:49:18.362Z,10.72
2023-04-12T21:51:46.355Z,10.63
2023-04-12T21:54:12.866Z,11.41
2023-04-12T21:56:39.321Z,10.00
2023-04-12T21:59:06.968Z,11.40
2023-04-12T22:01:33.938Z,11.31
2023-04-12T22:04:02.580Z,10.11
2023-04-12T22:06:30.362Z,9.88
2023-04-12T22:08:57.147Z,9.65
2023-04-12T22:11:23.709Z,10.59
2023-04-12T22:13:50.169Z,10.86
2023-04-12T22:16:16.864Z,10.38
2023-04-12T22:18:48.110Z,10.24
2023-04-12T22:21:15.260Z,10.68
2023-04-12T22:23:41.623Z,10.74
2023-04-12T22:26:08.667Z,9.93
2023-04-12T22:28:37.798Z,10.58
2023-04-12T22:31:05.725Z,10.43
2023-04-12T22:33:32.308Z,9.72
2023-04-12T22:35:58.859Z,10.12
2023-04-12T22:38:25.407Z,10.05
2023-04-12T22:40:54.561Z,9.82
2023-04-12T22:43:22.742Z,10.03
2023-04-12T22:45:49.116Z,10.60
2023-04-12T22:48:15.528Z,9.78
2023-04-12T22:50:44.682Z,10.71
2023-04-12T22:53:11.450Z,10.22
2023-04-12T22:55:42.115Z,10.35
2023-04-12T22:58:08.530Z,10.71
2023-04-12T23:00:35.175Z,10.80
2023-04-12T23:03:05.417Z,10.05
2023-04-12T23:05:31.963Z,10.57
2023-04-12T23:07:58.961Z,10.94
2023-04-12T23:10:25.407Z,10.91
2023-04-12T23:12:53.434Z,10.77
2023-04-12T23:15:20.531Z,10.55
2023-04-12T23:17:49.791Z,10.44
2023-04-12T23:20:17.065Z,11.25
2023-04-12T23:22:57.937Z,10.13
2023-04-12T23:25:41.525Z,9.99
2023-04-12T23:28:12.538Z,10.97
2023-04-12T23:30:42.546Z,11.41
2023-04-12T23:33:09.396Z,11.03
2023-04-12T23:35:39.253Z,11.41
2023-04-12T23:38:05.739Z,11.39
2023-04-12T23:40:32.093Z,11.19
2023-04-12T23:42:58.590Z,11.07
2023-04-12T23:45:24.975Z,11.01
2023-04-12T23:47:51.611Z,10.89
2023-04-12T23:50:18.142Z,10.49
2023-04-12T23:52:44.885Z,11.11
2023-04-12T23:55:11.251Z,10.97
2023-04-12T23:57:37.679Z,9.89
